Time;durP1;ratioP1;P1;durP2;ratioP2;P2;SDS_P1;SDS_P2;PMS_P1;PMS_P2;Temp;Humidity;BMP_temperature;BMP_pressure;BME280_temperature;BME280_humidity;BME280_pressure;Samples;Min_cycle;Max_cycle;Signal;HPM_P1;HPM_P2
2023/06/24 00:02:09;;;;;;;13.60;12.30;;;15.50;99.90;;;;;;5050177;28;20899;-91
2023/06/24 00:04:35;;;;;;;16.67;14.98;;;15.40;99.90;;;;;;5048807;28;20399;-92
2023/06/24 00:07:00;;;;;;;15.25;13.85;;;15.60;99.90;;;;;;5050984;28;20442;-91
2023/06/24 00:09:29;;;;;;;12.97;11.70;;;15.40;99.90;;;;;;5048234;28;20511;-91
2023/06/24 00:12:19;;;;;;;12.15;11.05;;;15.30;99.90;;;;;;5067542;28;20399;-91
2023/06/24 00:14:46;;;;;;;17.43;15.77;;;15.30;99.90;;;;;;5050272;28;20764;-91
2023/06/24 00:17:12;;;;;;;14.15;12.85;;;15.40;99.90;;;;;;5049203;28;20447;-91
2023/06/24 00:19:38;;;;;;;14.82;13.52;;;15.30;99.90;;;;;;5050642;28;20952;-91
2023/06/24 00:22:06;;;;;;;15.70;14.20;;;15.30;99.90;;;;;;5048161;28;20410;-91
2023/06/24 00:24:32;;;;;;;14.85;13.45;;;15.30;99.90;;;;;;5050789;28;20403;-92
2023/06/24 00:26:57;;;;;;;15.52;14.00;;;15.40;99.90;;;;;;5048306;28;20436;-90
2023/06/24 00:29:23;;;;;;;16.30;14.70;;;15.40;99.90;;;;;;5066867;28;20470;-92
2023/06/24 00:31:49;;;;;;;15.30;13.82;;;15.30;99.90;;;;;;5048977;28;20439;-91
2023/06/24 00:34:14;;;;;;;16.13;14.52;;;15.30;99.90;;;;;;5066280;28;20403;-91
2023/06/24 00:36:40;;;;;;;15.00;13.60;;;15.20;99.90;;;;;;5050048;28;20414;-91
2023/06/24 00:39:06;;;;;;;14.25;12.85;;;15.20;99.90;;;;;;5048259;28;20776;-92
2023/06/24 00:41:34;;;;;;;15.43;13.98;;;15.20;99.90;;;;;;5050001;28;20992;-91
2023/06/24 00:44:00;;;;;;;15.55;13.98;;;15.00;99.90;;;;;;5047969;28;20407;-93
2023/06/24 00:46:27;;;;;;;15.03;13.63;;;15.00;99.90;;;;;;5050275;28;20404;-91
2023/06/24 00:48:55;;;;;;;14.32;13.10;;;15.30;99.90;;;;;;5048433;28;20428;-91
2023/06/24 00:51:26;;;;;;;14.50;13.20;;;15.00;99.90;;;;;;5050057;28;20495;-91
2023/06/24 00:53:52;;;;;;;13.88;12.48;;;15.10;99.90;;;;;;5053560;28;20912;-91
2023/06/24 00:56:21;;;;;;;15.00;13.70;;;15.00;99.90;;;;;;5052417;28;20404;-91
2023/06/24 00:58:47;;;;;;;17.35;15.75;;;15.10;99.90;;;;;;5070610;28;20483;-91
2023/06/24 01:01:13;;;;;;;14.98;13.57;;;15.10;99.90;;;;;;5051995;28;20427;-91
2023/06/24 01:03:39;;;;;;;16.63;15.02;;;15.10;99.90;;;;;;5054325;28;21295;-91
2023/06/24 01:06:05;;;;;;;15.82;14.40;;;14.90;99.90;;;;;;5052102;28;20475;-91
2023/06/24 01:08:31;;;;;;;17.37;15.77;;;15.00;99.90;;;;;;5053573;28;20510;-91
2023/06/24 01:10:56;;;;;;;18.60;16.83;;;14.90;99.90;;;;;;5069870;28;20426;-90
2023/06/24 01:13:22;;;;;;;20.73;18.70;;;15.10;99.90;;;;;;5052627;28;20411;-91
2023/06/24 01:15:48;;;;;;;18.73;17.00;;;15.10;99.90;;;;;;5053558;28;21229;-90
2023/06/24 01:18:29;;;;;;;17.50;15.67;;;15.10;99.90;;;;;;5051234;28;20530;-91
2023/06/24 01:21:34;;;;;;;20.02;18.02;;;14.90;99.90;;;;;;5053144;28;20490;-90
2023/06/24 01:24:21;;;;;;;19.02;17.10;;;14.90;99.90;;;;;;5003523;28;20511;-90
2023/06/24 01:26:58;;;;;;;16.98;15.38;;;14.90;99.90;;;;;;5068460;28;20419;-91
2023/06/24 01:29:37;;;;;;;18.37;16.60;;;14.90;99.90;;;;;;5053406;28;20439;-90
2023/06/24 01:32:10;;;;;;;20.13;18.05;;;14.90;99.90;;;;;;5051385;28;20470;-91
2023/06/24 01:34:47;;;;;;;19.27;17.40;;;14.80;99.90;;;;;;5053182;28;20393;-91
2023/06/24 01:37:41;;;;;;;19.88;17.95;;;14.80;99.90;;;;;;5053202;28;20420;-91
2023/06/24 01:40:18;;;;;;;18.95;17.08;;;14.80;99.90;;;;;;5067836;28;20458;-91
2023/06/24 01:42:46;;;;;;;21.98;19.80;;;14.70;99.90;;;;;;5053282;28;20418;-91
2023/06/24 01:45:19;;;;;;;20.30;18.40;;;14.70;99.90;;;;;;5051690;28;20400;-91
2023/06/24 01:47:54;;;;;;;19.73;17.80;;;14.80;99.90;;;;;;5051869;28;20416;-91
2023/06/24 01:50:22;;;;;;;19.90;17.87;;;14.80;99.90;;;;;;5052772;28;20427;-92
2023/06/24 01:52:50;;;;;;;19.97;17.97;;;14.50;99.90;;;;;;5067874;28;20399;-92
2023/06/24 01:55:20;;;;;;;20.48;18.40;;;14.70;99.90;;;;;;5052763;28;20392;-91
2023/06/24 01:57:48;;;;;;;21.25;18.85;;;14.60;99.90;;;;;;5050570;28;20407;-91
2023/06/24 02:00:15;;;;;;;21.25;19.13;;;14.80;99.90;;;;;;5052395;28;20457;-93
2023/06/24 02:02:41;;;;;;;23.27;20.83;;;14.60;99.90;;;;;;5052251;28;20396;-91
2023/06/24 02:05:09;;;;;;;20.33;18.30;;;14.90;99.90;;;;;;5051535;28;20419;-91
2023/06/24 02:07:36;;;;;;;20.27;18.15;;;14.60;99.90;;;;;;5052670;28;20416;-91
2023/06/24 02:10:03;;;;;;;22.63;20.30;;;14.70;99.90;;;;;;5050308;28;20432;-91
2023/06/24 02:12:29;;;;;;;20.97;18.97;;;14.60;99.90;;;;;;5052769;28;20499;-90
2023/06/24 02:14:56;;;;;;;21.95;19.58;;;14.70;99.90;;;;;;5050576;28;20408;-91
2023/06/24 02:17:25;;;;;;;22.48;20.20;;;14.60;99.90;;;;;;5052274;28;20404;-91
2023/06/24 02:19:52;;;;;;;21.75;19.58;;;14.70;99.90;;;;;;5050839;28;20458;-91
2023/06/24 02:22:19;;;;;;;22.88;20.48;;;14.60;99.90;;;;;;5051112;28;20502;-90
2023/06/24 02:24:47;;;;;;;24.58;22.20;;;14.70;99.90;;;;;;5052053;28;20407;-91
2023/06/24 02:27:13;;;;;;;22.95;20.60;;;14.70;99.90;;;;;;5049867;28;20407;-90
2023/06/24 02:29:40;;;;;;;22.02;19.65;;;14.70;99.90;;;;;;5052003;28;20427;-90
2023/06/24 02:32:07;;;;;;;21.88;19.67;;;14.80;99.90;;;;;;5049350;28;20569;-91
2023/06/24 02:34:33;;;;;;;21.23;18.92;;;14.50;99.90;;;;;;5050469;28;20411;-91
2023/06/24 02:36:59;;;;;;;21.93;19.63;;;14.40;99.90;;;;;;5066144;28;20408;-91
2023/06/24 02:39:24;;;;;;;21.05;18.85;;;14.50;99.90;;;;;;5051760;28;20400;-91
2023/06/24 02:41:50;;;;;;;21.00;18.90;;;14.60;99.90;;;;;;5050742;28;20403;-90
2023/06/24 02:44:16;;;;;;;19.83;17.87;;;14.50;99.90;;;;;;5065946;28;20460;-91
2023/06/24 02:46:44;;;;;;;21.20;19.10;;;14.50;99.90;;;;;;5050790;28;20461;-90
2023/06/24 02:49:12;;;;;;;20.97;18.73;;;14.40;99.90;;;;;;5064811;28;20459;-90
2023/06/24 02:51:39;;;;;;;21.05;18.85;;;14.50;99.90;;;;;;5051714;28;20422;-90
2023/06/24 02:54:06;;;;;;;21.20;18.93;;;14.50;99.90;;;;;;5048508;28;20408;-90
2023/06/24 02:56:32;;;;;;;20.08;18.17;;;14.40;99.90;;;;;;5051092;28;20971;-90
2023/06/24 02:58:58;;;;;;;19.20;17.27;;;14.80;99.90;;;;;;5066644;28;20404;-91
2023/06/24 03:01:25;;;;;;;22.38;20.00;;;14.20;99.90;;;;;;5066109;28;20881;-91
2023/06/24 03:03:55;;;;;;;22.02;19.83;;;14.40;99.90;;;;;;5050783;28;20411;-91
2023/06/24 03:06:22;;;;;;;22.17;19.88;;;14.50;99.90;;;;;;5048539;28;20554;-91
2023/06/24 03:08:49;;;;;;;22.20;19.98;;;14.30;99.90;;;;;;5050416;28;20431;-89
2023/06/24 03:11:15;;;;;;;20.90;17.73;;;14.40;99.90;;;;;;5048233;28;20461;-90
2023/06/24 03:13:41;;;;;;;21.30;19.20;;;14.30;99.90;;;;;;5050621;28;20811;-91
2023/06/24 03:16:12;;;;;;;22.85;20.45;;;14.30;99.90;;;;;;5048828;28;20404;-91
2023/06/24 03:18:41;;;;;;;20.90;18.70;;;14.20;99.90;;;;;;5049545;28;20420;-92
2023/06/24 03:21:08;;;;;;;23.03;20.57;;;14.20;99.90;;;;;;5050001;28;20418;-91
2023/06/24 03:23:34;;;;;;;24.88;21.88;;;14.20;99.90;;;;;;5048258;28;20402;-90
2023/06/24 03:26:00;;;;;;;22.50;20.10;;;14.40;99.90;;;;;;5050290;28;20407;-89
2023/06/24 03:28:26;;;;;;;20.92;18.75;;;14.20;99.90;;;;;;5064591;28;20400;-91
2023/06/24 03:30:52;;;;;;;21.40;19.27;;;13.90;99.90;;;;;;5049881;28;20808;-91
2023/06/24 03:33:18;;;;;;;22.67;20.30;;;14.30;99.90;;;;;;4985523;28;1890238;-90
2023/06/24 03:35:44;;;;;;;22.15;19.60;;;14.30;99.90;;;;;;5050442;28;20506;-89
2023/06/24 03:38:09;;;;;;;21.37;18.90;;;14.40;99.90;;;;;;5051041;28;20436;-90
2023/06/24 03:40:35;;;;;;;21.30;19.10;;;14.20;99.90;;;;;;5049264;28;20403;-90
2023/06/24 03:43:01;;;;;;;20.98;18.88;;;14.30;99.90;;;;;;5050915;28;20426;-90
2023/06/24 03:45:26;;;;;;;20.97;18.77;;;14.40;99.90;;;;;;5065189;28;20527;-89
2023/06/24 03:47:52;;;;;;;23.02;20.58;;;14.30;99.90;;;;;;5051229;28;20403;-92
2023/06/24 03:50:18;;;;;;;21.43;18.97;;;14.30;99.90;;;;;;5048353;28;20858;-91
2023/06/24 03:52:44;;;;;;;21.10;18.90;;;14.30;99.90;;;;;;5050790;28;20849;-91
2023/06/24 03:55:10;;;;;;;20.45;18.27;;;14.40;99.90;;;;;;5050098;28;20487;-90
2023/06/24 03:57:36;;;;;;;21.35;18.73;;;14.60;99.90;;;;;;5049385;28;20412;-91
2023/06/24 04:00:15;;;;;;;20.67;18.63;;;14.50;99.90;;;;;;5050698;28;20407;-90
2023/06/24 04:02:41;;;;;;;20.63;18.45;;;14.40;99.90;;;;;;5065303;28;20411;-90
2023/06/24 04:05:08;;;;;;;21.85;19.58;;;14.60;99.90;;;;;;5050876;28;20802;-91
2023/06/24 04:07:35;;;;;;;21.30;19.10;;;14.50;99.90;;;;;;5048598;28;20435;-90
2023/06/24 04:10:03;;;;;;;22.23;19.83;;;14.60;99.90;;;;;;5050711;28;20427;-91
2023/06/24 04:12:29;;;;;;;21.15;18.95;;;14.70;99.90;;;;;;5049827;28;20423;-92
2023/06/24 04:14:55;;;;;;;20.77;18.47;;;15.00;99.90;;;;;;5049454;28;20877;-91
2023/06/24 04:17:21;;;;;;;21.53;19.10;;;14.90;99.90;;;;;;5050906;28;20446;-90
2023/06/24 04:19:46;;;;;;;20.83;18.73;;;14.90;99.90;;;;;;5048240;28;20440;-91
2023/06/24 04:22:12;;;;;;;21.17;18.98;;;15.10;99.90;;;;;;5050508;28;20396;-91
2023/06/24 04:24:38;;;;;;;19.70;17.70;;;15.30;99.90;;;;;;5048506;28;20408;-90
2023/06/24 04:27:05;;;;;;;19.58;17.48;;;15.50;99.90;;;;;;5051657;28;20400;-90
2023/06/24 04:29:30;;;;;;;21.27;19.05;;;15.50;99.90;;;;;;5052412;28;20459;-90
2023/06/24 04:31:56;;;;;;;20.10;18.07;;;15.70;99.90;;;;;;5053810;28;20469;-91
2023/06/24 04:34:22;;;;;;;19.60;17.50;;;15.70;99.90;;;;;;5054128;28;20454;-91
2023/06/24 04:36:47;;;;;;;19.30;17.30;;;16.00;99.90;;;;;;5052611;28;20768;-90
2023/06/24 04:39:13;;;;;;;19.10;17.20;;;16.00;99.90;;;;;;5053960;28;20795;-90
2023/06/24 04:41:39;;;;;;;19.83;17.90;;;16.20;99.90;;;;;;5051846;28;20999;-92
2023/06/24 04:44:05;;;;;;;19.52;17.67;;;16.20;99.90;;;;;;5054599;28;20927;-92
2023/06/24 04:46:32;;;;;;;20.13;18.00;;;16.30;99.90;;;;;;5052079;28;20396;-92
2023/06/24 04:48:58;;;;;;;18.48;16.67;;;16.40;99.90;;;;;;5054011;28;20935;-92
2023/06/24 04:51:24;;;;;;;19.08;17.00;;;16.50;99.90;;;;;;5070107;28;20412;-92
2023/06/24 04:53:49;;;;;;;17.53;15.93;;;16.60;99.90;;;;;;5052660;28;20399;-89
2023/06/24 04:56:15;;;;;;;17.93;16.13;;;16.60;99.90;;;;;;5057341;28;20931;-87
2023/06/24 04:58:41;;;;;;;16.83;15.02;;;16.90;99.90;;;;;;5069324;28;20477;-87
2023/06/24 05:01:06;;;;;;;17.17;15.37;;;17.00;99.90;;;;;;5070772;28;20902;-88
2023/06/24 05:03:32;;;;;;;17.63;15.93;;;17.00;99.90;;;;;;5069667;28;20398;-89
2023/06/24 05:05:58;;;;;;;16.80;15.20;;;17.20;99.90;;;;;;5071312;28;20409;-86
2023/06/24 05:08:24;;;;;;;16.53;14.83;;;17.30;99.90;;;;;;5066355;28;20427;-86
2023/06/24 05:10:50;;;;;;;16.77;15.05;;;17.60;99.90;;;;;;5067682;28;20420;-87
2023/06/24 05:13:15;;;;;;;16.55;14.95;;;17.60;99.90;;;;;;5068118;28;20415;-87
2023/06/24 05:15:41;;;;;;;16.70;15.10;;;17.80;99.90;;;;;;5066514;28;20969;-88
2023/06/24 05:18:07;;;;;;;16.40;14.82;;;18.00;99.90;;;;;;5067695;28;20435;-88
2023/06/24 05:20:33;;;;;;;15.70;14.10;;;18.10;99.90;;;;;;5049471;28;20478;-87
2023/06/24 05:22:58;;;;;;;16.23;14.63;;;18.30;99.90;;;;;;5051496;28;20423;-87
2023/06/24 05:25:24;;;;;;;15.77;14.38;;;18.40;99.90;;;;;;5049811;28;20415;-88
2023/06/24 05:27:50;;;;;;;15.80;14.30;;;18.40;99.90;;;;;;5051049;28;20518;-87
2023/06/24 05:30:15;;;;;;;15.65;14.05;;;18.90;99.90;;;;;;5050478;28;20431;-88
2023/06/24 05:32:41;;;;;;;15.13;13.80;;;18.60;99.90;;;;;;5049777;28;20412;-87
2023/06/24 05:35:07;;;;;;;14.88;13.43;;;18.70;99.90;;;;;;5067854;28;20407;-88
2023/06/24 05:37:33;;;;;;;14.80;13.50;;;18.80;99.90;;;;;;5066154;28;20764;-89
2023/06/24 05:40:01;;;;;;;14.93;13.43;;;19.00;99.90;;;;;;5068266;28;20404;-88
2023/06/24 05:42:27;;;;;;;14.30;12.93;;;19.10;99.90;;;;;;5065915;28;20396;-88
2023/06/24 05:44:53;;;;;;;14.75;13.25;;;19.20;99.90;;;;;;5051580;28;20822;-90
2023/06/24 05:47:19;;;;;;;14.90;13.45;;;19.40;99.90;;;;;;5050760;28;20403;-90
2023/06/24 05:49:45;;;;;;;14.70;13.20;;;19.90;99.90;;;;;;5068298;28;20470;-90
2023/06/24 05:52:11;;;;;;;14.10;12.80;;;19.70;99.90;;;;;;5068543;28;20448;-88
2023/06/24 05:54:37;;;;;;;13.75;12.40;;;19.90;99.90;;;;;;5050693;28;20404;-92
2023/06/24 05:57:06;;;;;;;13.93;12.60;;;20.10;99.90;;;;;;5068511;28;20934;-90
2023/06/24 05:59:33;;;;;;;13.88;12.48;;;20.30;99.90;;;;;;5066216;28;20434;-89
2023/06/24 06:01:59;;;;;;;13.07;11.82;;;20.80;99.90;;;;;;5068077;28;20419;-89
2023/06/24 06:04:24;;;;;;;12.63;11.47;;;20.70;99.90;;;;;;5050038;28;20398;-88
2023/06/24 06:06:50;;;;;;;12.20;11.00;;;21.00;99.90;;;;;;5053756;28;20782;-88
2023/06/24 06:09:15;;;;;;;12.37;11.23;;;21.10;99.90;;;;;;5070052;28;20418;-87
2023/06/24 06:11:41;;;;;;;11.00;10.02;;;21.00;99.90;;;;;;5068801;28;20402;-88
2023/06/24 06:14:07;;;;;;;11.63;10.53;;;21.10;99.90;;;;;;5070400;28;20413;-88
2023/06/24 06:16:32;;;;;;;11.43;10.43;;;21.30;99.90;;;;;;5068427;28;20409;-89
2023/06/24 06:18:58;;;;;;;12.17;11.07;;;21.30;99.90;;;;;;5053562;28;20501;-87
2023/06/24 06:21:24;;;;;;;11.23;10.23;;;21.40;99.90;;;;;;5068259;28;20782;-88
2023/06/24 06:23:50;;;;;;;11.80;10.60;;;21.40;99.90;;;;;;5053378;28;20417;-89
2023/06/24 06:26:16;;;;;;;11.20;10.10;;;21.30;99.90;;;;;;5052522;28;20402;-88
2023/06/24 06:28:41;;;;;;;10.73;9.50;;;21.50;99.90;;;;;;5069063;28;20426;-88
2023/06/24 06:31:07;;;;;;;11.30;10.00;;;21.70;99.90;;;;;;5052926;28;20423;-88
2023/06/24 06:33:32;;;;;;;11.47;10.37;;;21.60;99.90;;;;;;5066917;28;20414;-87
2023/06/24 06:35:58;;;;;;;12.45;11.27;;;21.70;99.90;;;;;;5051929;28;20896;-88
2023/06/24 06:38:24;;;;;;;11.77;10.55;;;21.60;99.90;;;;;;5065214;28;20400;-89
2023/06/24 06:40:50;;;;;;;12.57;11.38;;;21.60;99.90;;;;;;5067245;28;20514;-87
2023/06/24 06:43:15;;;;;;;12.35;11.20;;;21.70;99.90;;;;;;5064865;28;20404;-88
2023/06/24 06:45:41;;;;;;;12.90;11.13;;;21.90;99.90;;;;;;5049175;28;20503;-89
2023/06/24 06:48:08;;;;;;;12.15;11.00;;;21.80;99.90;;;;;;5065948;28;20491;-88
2023/06/24 06:50:34;;;;;;;12.73;11.40;;;21.90;99.90;;;;;;5063241;28;20956;-88
2023/06/24 06:53:00;;;;;;;13.37;12.00;;;22.30;99.90;;;;;;5065869;28;20399;-88
2023/06/24 06:55:27;;;;;;;13.95;11.98;;;22.40;99.90;;;;;;5047133;28;20476;-89
2023/06/24 06:57:53;;;;;;;13.52;12.23;;;22.30;99.90;;;;;;5066348;28;20449;-87
2023/06/24 07:00:19;;;;;;;12.65;11.43;;;22.40;99.90;;;;;;5064322;28;20468;-88
2023/06/24 07:02:44;;;;;;;14.27;12.80;;;22.60;99.90;;;;;;5066008;28;21014;-88
2023/06/24 07:05:11;;;;;;;13.20;11.90;;;22.60;99.90;;;;;;5049281;28;20408;-88
2023/06/24 07:07:39;;;;;;;14.02;12.65;;;22.90;99.90;;;;;;5065092;28;20407;-87
2023/06/24 07:10:06;;;;;;;12.75;11.55;;;22.90;99.90;;;;;;5065713;28;20477;-87
2023/06/24 07:12:31;;;;;;;13.38;12.07;;;22.90;99.90;;;;;;5064851;28;20399;-93
2023/06/24 07:14:57;;;;;;;13.25;12.00;;;23.10;99.90;;;;;;5067847;28;20469;-94
2023/06/24 07:17:23;;;;;;;12.30;11.13;;;23.20;99.90;;;;;;5065982;28;20486;-92
2023/06/24 07:19:48;;;;;;;12.30;11.20;;;23.30;99.90;;;;;;5050290;28;20408;-93
2023/06/24 07:22:15;;;;;;;12.20;11.10;;;23.40;99.90;;;;;;5048512;28;20399;-93
2023/06/24 07:24:41;;;;;;;12.30;11.18;;;23.60;99.90;;;;;;5049661;28;20404;-93
2023/06/24 07:27:07;;;;;;;12.87;11.67;;;23.70;99.90;;;;;;5066749;28;20400;-93
2023/06/24 07:29:33;;;;;;;13.30;11.98;;;23.60;99.90;;;;;;5048362;28;20773;-91
2023/06/24 07:31:59;;;;;;;13.43;12.05;;;23.60;99.90;;;;;;5049985;28;20790;-93
2023/06/24 07:34:24;;;;;;;12.37;10.63;;;23.60;99.90;;;;;;5048166;28;20808;-93
2023/06/24 07:36:50;;;;;;;12.90;11.70;;;23.80;99.90;;;;;;5050078;28;20826;-93
2023/06/24 07:39:16;;;;;;;12.73;11.53;;;23.70;99.90;;;;;;5048416;28;20400;-92
2023/06/24 07:41:42;;;;;;;13.23;11.82;;;23.80;99.90;;;;;;5049971;28;20765;-92
2023/06/24 07:44:08;;;;;;;13.48;12.20;;;23.70;99.90;;;;;;5049379;28;20395;-92
2023/06/24 07:46:34;;;;;;;13.60;12.20;;;23.70;99.90;;;;;;5048415;28;20406;-92
2023/06/24 07:49:00;;;;;;;11.85;10.70;;;23.70;99.90;;;;;;5049866;28;20478;-92
2023/06/24 07:51:27;;;;;;;13.63;12.23;;;23.80;99.90;;;;;;5047683;28;20399;-94
2023/06/24 07:53:52;;;;;;;12.90;11.70;;;23.70;99.90;;;;;;5049666;28;20827;-92
2023/06/24 07:56:18;;;;;;;13.52;12.32;;;23.70;99.90;;;;;;5047900;28;20396;-94
2023/06/24 07:58:44;;;;;;;13.20;11.90;;;23.80;99.90;;;;;;5049550;28;20396;-93
2023/06/24 08:01:09;;;;;;;11.80;10.60;;;23.90;99.90;;;;;;5048277;28;20461;-92
2023/06/24 08:03:37;;;;;;;12.73;11.37;;;23.90;99.90;;;;;;5048790;28;20404;-93
2023/06/24 08:06:03;;;;;;;12.85;11.65;;;24.00;99.90;;;;;;5049419;28;20506;-92
2023/06/24 08:08:28;;;;;;;13.52;12.23;;;24.20;99.90;;;;;;5047529;28;20428;-94
2023/06/24 08:10:54;;;;;;;12.80;11.50;;;24.20;99.90;;;;;;5049631;28;20843;-93
2023/06/24 08:13:21;;;;;;;13.77;12.13;;;24.10;99.90;;;;;;5047201;28;20400;-94
2023/06/24 08:15:47;;;;;;;12.85;11.55;;;24.20;99.90;;;;;;5049712;28;20399;-93
2023/06/24 08:18:12;;;;;;;12.37;11.13;;;24.60;99.90;;;;;;5047673;28;20847;-95
2023/06/24 08:20:38;;;;;;;12.45;10.02;;;24.70;99.90;;;;;;5049170;28;20435;-94
2023/06/24 08:23:04;;;;;;;11.70;10.60;;;24.80;99.90;;;;;;5065356;28;20791;-93
2023/06/24 08:25:30;;;;;;;9.90;8.90;;;24.60;99.90;;;;;;5047350;28;20453;-94
2023/06/24 08:27:56;;;;;;;10.40;9.30;;;25.00;99.90;;;;;;5049738;28;20730;-93
2023/06/24 08:30:22;;;;;;;11.07;10.00;;;25.20;99.90;;;;;;5063728;28;20431;-94
2023/06/24 08:32:47;;;;;;;10.70;9.60;;;25.30;99.90;;;;;;5049697;28;20411;-92
2023/06/24 08:35:13;;;;;;;10.88;9.77;;;25.40;99.90;;;;;;5047403;28;20487;-93
2023/06/24 08:37:39;;;;;;;10.83;9.73;;;25.40;99.90;;;;;;5048874;28;20443;-92
2023/06/24 08:40:06;;;;;;;11.60;10.40;;;25.60;98.80;;;;;;5064536;28;20464;-93
2023/06/24 08:42:31;;;;;;;9.50;8.60;;;25.60;98.20;;;;;;5047141;28;20983;-94
2023/06/24 08:44:57;;;;;;;9.23;8.35;;;25.90;99.90;;;;;;5048791;28;20491;-94
2023/06/24 08:47:28;;;;;;;10.60;9.60;;;25.80;99.90;;;;;;5046937;28;20449;-93
2023/06/24 08:50:04;;;;;;;10.75;9.65;;;25.80;99.30;;;;;;5048611;28;20415;-94
2023/06/24 08:52:35;;;;;;;9.63;8.63;;;25.90;99.90;;;;;;5047463;28;20407;-95
2023/06/24 08:55:01;;;;;;;10.98;9.88;;;26.00;99.90;;;;;;5048583;28;20400;-93
2023/06/24 08:57:27;;;;;;;11.68;10.48;;;26.00;99.10;;;;;;5047876;28;20400;-92
2023/06/24 08:59:53;;;;;;;10.55;9.55;;;26.10;96.10;;;;;;5047368;28;20456;-94
2023/06/24 09:02:19;;;;;;;10.30;9.20;;;26.30;98.00;;;;;;5048888;28;20414;-93
2023/06/24 09:04:45;;;;;;;11.00;9.15;;;26.50;98.90;;;;;;5046252;28;20410;-93
2023/06/24 09:07:11;;;;;;;9.73;8.73;;;26.60;97.80;;;;;;5048787;28;20487;-94
2023/06/24 09:09:44;;;;;;;10.52;9.38;;;26.80;97.20;;;;;;5046989;28;20438;-92
2023/06/24 09:12:12;;;;;;;10.23;9.20;;;26.70;99.40;;;;;;5048827;28;20412;-93
2023/06/24 09:14:38;;;;;;;10.52;9.40;;;26.70;96.60;;;;;;5051817;28;20491;-91
2023/06/24 09:17:04;;;;;;;10.27;9.27;;;26.70;93.50;;;;;;5051214;28;21015;-93
2023/06/24 09:19:30;;;;;;;10.57;9.48;;;26.80;95.30;;;;;;5051923;28;20395;-93
2023/06/24 09:22:00;;;;;;;9.82;8.93;;;27.00;98.40;;;;;;5049912;28;20468;-93
2023/06/24 09:24:33;;;;;;;10.48;9.48;;;27.10;97.00;;;;;;5051940;28;20461;-94
2023/06/24 09:27:00;;;;;;;9.70;8.70;;;27.10;96.20;;;;;;5049692;28;20407;-94
2023/06/24 09:29:29;;;;;;;9.53;8.63;;;27.20;93.60;;;;;;5052153;28;20424;-92
2023/06/24 09:31:59;;;;;;;10.67;8.53;;;27.20;94.20;;;;;;5050930;28;20412;-93
2023/06/24 09:34:26;;;;;;;9.80;8.90;;;27.40;96.90;;;;;;5050600;28;20903;-94
2023/06/24 09:36:53;;;;;;;9.02;8.13;;;27.50;96.00;;;;;;5052532;28;20549;-93
2023/06/24 09:39:29;;;;;;;9.70;8.20;;;27.60;97.60;;;;;;5049864;28;20904;-93
2023/06/24 09:42:01;;;;;;;9.60;8.60;;;27.40;94.70;;;;;;5065343;28;20925;-93
2023/06/24 09:44:28;;;;;;;8.40;7.60;;;27.80;94.40;;;;;;5049606;28;20499;-93
2023/06/24 09:46:55;;;;;;;9.63;8.63;;;27.90;93.30;;;;;;5051515;28;20641;-93
2023/06/24 09:49:22;;;;;;;9.45;8.55;;;28.00;92.10;;;;;;5050972;28;20925;-93
2023/06/24 09:51:55;;;;;;;8.73;7.72;;;28.10;85.40;;;;;;5050167;28;20403;-91
2023/06/24 09:54:23;;;;;;;8.25;7.45;;;28.20;87.80;;;;;;5068662;28;20899;-93
2023/06/24 09:56:50;;;;;;;8.38;7.45;;;28.30;87.10;;;;;;5049210;28;20410;-92
2023/06/24 09:59:19;;;;;;;8.77;7.10;;;28.30;88.40;;;;;;5051869;28;20407;-93
2023/06/24 10:01:47;;;;;;;9.00;7.68;;;28.40;90.30;;;;;;5049653;28;20414;-94
2023/06/24 10:04:20;;;;;;;8.30;7.03;;;28.60;81.30;;;;;;5050895;28;20396;-93
2023/06/24 10:06:46;;;;;;;7.45;6.68;;;28.70;82.70;;;;;;5050783;28;20756;-91
2023/06/24 10:09:16;;;;;;;5.93;4.13;;;28.80;75.10;;;;;;5049978;28;20435;-94
2023/06/24 10:11:45;;;;;;;4.68;4.22;;;28.70;63.60;;;;;;5051937;28;20756;-93
2023/06/24 10:14:11;;;;;;;5.97;4.10;;;28.50;62.00;;;;;;5049139;28;20410;-94
2023/06/24 10:16:37;;;;;;;4.38;3.50;;;28.50;59.30;;;;;;5051690;28;20412;-93
2023/06/24 10:19:03;;;;;;;4.10;3.72;;;28.60;62.00;;;;;;5049827;28;20401;-94
2023/06/24 10:21:51;;;;;;;4.95;3.42;;;28.80;59.90;;;;;;5051726;28;20404;-94
2023/06/24 10:24:34;;;;;;;4.93;3.72;;;29.10;58.30;;;;;;5050329;28;20498;-93
2023/06/24 10:27:32;;;;;;;4.53;3.55;;;29.30;57.70;;;;;;5049027;28;20412;-91
2023/06/24 10:30:04;;;;;;;5.70;3.55;;;29.50;57.50;;;;;;5051171;28;20534;-93
2023/06/24 10:32:43;;;;;;;4.53;3.35;;;29.80;57.80;;;;;;5049944;28;20416;-93
2023/06/24 10:35:26;;;;;;;5.40;3.92;;;30.10;55.20;;;;;;5049279;28;20741;-93
2023/06/24 10:37:56;;;;;;;5.28;4.10;;;30.30;50.50;;;;;;5051334;28;20419;-93
2023/06/24 10:40:54;;;;;;;4.25;3.47;;;30.50;49.90;;;;;;5048262;28;20412;-93
2023/06/24 10:43:23;;;;;;;5.18;3.78;;;30.60;49.40;;;;;;5033902;28;20815;-94
2023/06/24 10:45:50;;;;;;;5.15;3.42;;;30.90;47.50;;;;;;5050748;28;20460;-93
2023/06/24 10:48:19;;;;;;;5.35;3.50;;;31.10;48.80;;;;;;5048875;28;20734;-93
2023/06/24 10:50:45;;;;;;;4.07;3.67;;;31.40;47.70;;;;;;5051017;28;20765;-92
2023/06/24 10:53:12;;;;;;;4.70;3.60;;;31.60;50.10;;;;;;5048292;28;20404;-95
2023/06/24 10:55:39;;;;;;;4.78;3.53;;;31.70;48.00;;;;;;5050798;28;20415;-93
2023/06/24 10:58:13;;;;;;;6.13;4.82;;;31.90;48.70;;;;;;5048996;28;20904;-93
2023/06/24 11:00:43;;;;;;;6.60;4.20;;;31.90;49.70;;;;;;5066471;28;20408;-95
2023/06/24 11:03:19;;;;;;;5.13;3.90;;;32.20;47.30;;;;;;5050325;28;20406;-94
2023/06/24 11:05:45;;;;;;;4.33;3.30;;;32.20;44.50;;;;;;5048288;28;20912;-93
2023/06/24 11:08:12;;;;;;;3.92;2.90;;;31.90;44.90;;;;;;5050198;28;20412;-95
2023/06/24 11:10:45;;;;;;;3.90;2.80;;;31.80;47.00;;;;;;5048270;28;20459;-93
2023/06/24 11:13:12;;;;;;;4.45;2.92;;;32.00;42.90;;;;;;5050303;28;20438;-93
2023/06/24 11:15:40;;;;;;;4.60;2.95;;;32.10;45.20;;;;;;5049759;28;20410;-94
2023/06/24 11:18:08;;;;;;;5.20;3.22;;;32.10;42.00;;;;;;5049881;28;20416;-93
2023/06/24 11:20:37;;;;;;;4.55;3.38;;;32.10;45.10;;;;;;5050651;28;20851;-94
2023/06/24 11:23:06;;;;;;;4.80;3.70;;;32.20;43.90;;;;;;5048435;28;20801;-92
2023/06/24 11:25:40;;;;;;;5.40;3.65;;;32.40;42.50;;;;;;5050857;28;20442;-95
2023/06/24 11:28:18;;;;;;;5.80;3.58;;;32.30;43.30;;;;;;5048788;28;20407;-93
2023/06/24 11:30:47;;;;;;;4.47;3.85;;;32.30;44.00;;;;;;5050496;28;20411;-94
2023/06/24 11:33:13;;;;;;;4.85;4.32;;;32.40;45.20;;;;;;5049360;28;20448;-93
2023/06/24 11:35:38;;;;;;;5.85;3.60;;;32.60;46.50;;;;;;5047653;28;20473;-94
2023/06/24 11:38:05;;;;;;;5.00;3.97;;;32.80;44.70;;;;;;5050470;28;20764;-94
2023/06/24 11:40:32;;;;;;;6.13;3.60;;;33.00;43.50;;;;;;5047468;28;20769;-94
2023/06/24 11:43:03;;;;;;;3.88;3.40;;;33.30;43.80;;;;;;5067015;28;20407;-95
2023/06/24 11:45:28;;;;;;;4.13;3.20;;;33.50;42.60;;;;;;5048370;28;20408;-94
2023/06/24 11:48:04;;;;;;;4.63;3.70;;;33.70;42.30;;;;;;5067325;28;20431;-93
2023/06/24 11:50:30;;;;;;;5.05;2.92;;;33.80;41.50;;;;;;5049280;28;20435;-93
2023/06/24 11:52:55;;;;;;;3.90;2.70;;;33.70;40.80;;;;;;5048737;28;20404;-93
2023/06/24 11:55:23;;;;;;;3.87;3.00;;;33.20;43.10;;;;;;5050453;28;20404;-94
2023/06/24 11:57:51;;;;;;;3.40;2.30;;;33.10;42.20;;;;;;5047973;28;20415;-94
2023/06/24 12:00:20;;;;;;;4.13;2.45;;;33.00;42.50;;;;;;5049919;28;20412;-94
2023/06/24 12:02:51;;;;;;;4.63;3.30;;;32.70;42.00;;;;;;5046975;28;20404;-95
2023/06/24 12:05:26;;;;;;;4.50;3.30;;;32.50;43.80;;;;;;5033515;28;20469;-94
2023/06/24 12:08:00;;;;;;;3.83;2.58;;;32.40;43.20;;;;;;5048842;28;20415;-94
2023/06/24 12:10:28;;;;;;;3.47;2.38;;;32.60;44.30;;;;;;5048365;28;20431;-94
2023/06/24 12:13:05;;;;;;;3.15;2.47;;;32.60;44.00;;;;;;5050564;28;20407;-95
2023/06/24 12:15:32;;;;;;;3.53;2.00;;;32.30;43.90;;;;;;5048343;28;20493;-93
2023/06/24 12:17:58;;;;;;;3.20;1.92;;;32.10;47.10;;;;;;5051070;28;20442;-94
2023/06/24 12:20:27;;;;;;;2.83;1.67;;;32.00;44.30;;;;;;5049657;28;20400;-93
2023/06/24 12:22:53;;;;;;;2.72;1.90;;;32.00;44.30;;;;;;5067487;28;20419;-94
2023/06/24 12:25:19;;;;;;;3.37;1.80;;;31.70;43.10;;;;;;5048520;28;20404;-94
2023/06/24 12:28:03;;;;;;;3.75;1.88;;;31.40;46.50;;;;;;5049053;28;20412;-95
2023/06/24 12:30:29;;;;;;;5.10;2.00;;;31.60;48.30;;;;;;5050354;28;20444;-94
2023/06/24 12:32:57;;;;;;;3.13;1.88;;;31.30;44.30;;;;;;5047984;28;20821;-94
2023/06/24 12:35:26;;;;;;;3.40;1.70;;;30.80;45.00;;;;;;5049102;28;20806;-94
2023/06/24 12:37:52;;;;;;;2.60;1.63;;;30.70;50.30;;;;;;5048977;28;20408;-93